Time;durP1;ratioP1;P1;durP2;ratioP2;P2;SDS_P1;SDS_P2;PMS_P1;PMS_P2;Temp;Humidity;BMP_temperature;BMP_pressure;BME280_temperature;BME280_humidity;BME280_pressure;Samples;Min_cycle;Max_cycle;Signal;HPM_P1;HPM_P2
2021/03/06 00:01:21;;;;;;;6.13;3.78;;;2.30;99.90;;;;;;5093406;28;20226;-72
2021/03/06 00:03:48;;;;;;;4.78;2.83;;;2.30;99.90;;;;;;5093483;28;20289;-73
2021/03/06 00:06:14;;;;;;;5.32;2.67;;;2.30;99.90;;;;;;5092464;28;20681;-73
2021/03/06 00:08:41;;;;;;;5.10;3.45;;;2.40;99.90;;;;;;5092271;28;20206;-73
2021/03/06 00:11:08;;;;;;;3.60;2.80;;;2.40;99.90;;;;;;5093073;28;20721;-73
2021/03/06 00:13:36;;;;;;;5.68;3.30;;;2.30;99.90;;;;;;5093342;28;20301;-73
2021/03/06 00:16:02;;;;;;;5.25;3.10;;;2.20;99.90;;;;;;5092575;28;20265;-74
2021/03/06 00:18:29;;;;;;;4.93;3.03;;;2.20;99.90;;;;;;5092020;28;20224;-73
2021/03/06 00:20:56;;;;;;;3.92;3.08;;;2.20;99.90;;;;;;5092616;28;20757;-75
2021/03/06 00:23:23;;;;;;;4.13;2.60;;;2.10;99.90;;;;;;5092731;28;20198;-74
2021/03/06 00:25:50;;;;;;;5.18;3.35;;;2.10;99.90;;;;;;5092759;28;20221;-75
2021/03/06 00:28:16;;;;;;;4.18;2.72;;;2.10;99.90;;;;;;5090635;28;20233;-73
2021/03/06 00:30:44;;;;;;;5.68;3.35;;;2.10;99.90;;;;;;5072007;28;20222;-72
2021/03/06 00:33:10;;;;;;;5.03;2.88;;;2.10;99.90;;;;;;5072181;28;20203;-74
2021/03/06 00:35:37;;;;;;;5.45;3.05;;;2.10;99.90;;;;;;5071923;28;20676;-75
2021/03/06 00:38:03;;;;;;;5.07;3.03;;;2.00;99.90;;;;;;5071763;28;20680;-74
2021/03/06 00:40:29;;;;;;;3.75;2.75;;;2.00;99.90;;;;;;5071794;28;20319;-75
2021/03/06 00:42:57;;;;;;;7.75;3.40;;;2.00;99.90;;;;;;5072290;28;20198;-75
2021/03/06 00:45:23;;;;;;;4.10;2.35;;;2.00;99.90;;;;;;5071741;28;20211;-75
2021/03/06 00:47:49;;;;;;;3.10;2.28;;;2.00;99.90;;;;;;5071461;28;20290;-75
2021/03/06 00:50:20;;;;;;;5.10;2.60;;;2.00;99.90;;;;;;5071714;28;20223;-75
2021/03/06 00:52:46;;;;;;;5.35;2.97;;;2.00;99.90;;;;;;5072486;28;20199;-75
2021/03/06 00:55:13;;;;;;;4.28;3.00;;;2.00;99.90;;;;;;5071862;28;20207;-74
2021/03/06 00:57:39;;;;;;;6.05;3.42;;;2.00;99.90;;;;;;5071501;28;20198;-75
2021/03/06 01:00:08;;;;;;;4.40;2.80;;;2.00;99.90;;;;;;5072759;28;20295;-75
2021/03/06 01:02:34;;;;;;;3.13;2.25;;;2.10;99.90;;;;;;5075623;28;20203;-75
2021/03/06 01:05:01;;;;;;;4.78;3.10;;;2.10;99.90;;;;;;5075478;28;20306;-75
2021/03/06 01:07:27;;;;;;;8.35;3.60;;;2.10;99.90;;;;;;5075018;28;20206;-75
2021/03/06 01:09:53;;;;;;;5.30;3.28;;;2.10;99.90;;;;;;5075121;28;20226;-76
2021/03/06 01:12:20;;;;;;;4.60;3.13;;;2.10;99.70;;;;;;5075598;28;20727;-75
2021/03/06 01:14:46;;;;;;;3.92;3.45;;;2.10;99.40;;;;;;5075303;28;20206;-75
2021/03/06 01:17:13;;;;;;;3.25;2.80;;;2.00;99.00;;;;;;5074733;28;20669;-75
2021/03/06 01:19:40;;;;;;;2.67;2.45;;;2.00;98.90;;;;;;5074751;28;20207;-75
2021/03/06 01:22:06;;;;;;;7.45;3.35;;;1.90;98.80;;;;;;5075044;28;20272;-75
2021/03/06 01:24:34;;;;;;;4.82;2.08;;;1.90;99.20;;;;;;5075006;28;20289;-73
2021/03/06 01:27:00;;;;;;;5.70;2.92;;;1.90;99.10;;;;;;5074450;28;20206;-70
2021/03/06 01:29:27;;;;;;;4.68;3.35;;;1.90;99.00;;;;;;5074609;28;20207;-71
2021/03/06 01:31:53;;;;;;;7.43;3.20;;;1.80;99.00;;;;;;5074816;28;20219;-71
2021/03/06 01:34:20;;;;;;;3.67;2.42;;;1.70;99.40;;;;;;5075001;28;20273;-72
2021/03/06 01:36:47;;;;;;;3.95;3.20;;;1.80;99.90;;;;;;5074617;28;20290;-72
2021/03/06 01:39:13;;;;;;;5.43;2.83;;;1.70;99.90;;;;;;5074405;28;20207;-71
2021/03/06 01:41:39;;;;;;;5.90;3.33;;;1.70;99.90;;;;;;5074661;28;20321;-71
2021/03/06 01:44:06;;;;;;;4.93;3.08;;;1.70;99.90;;;;;;5075242;28;20213;-74
2021/03/06 01:46:32;;;;;;;4.18;2.70;;;1.70;99.70;;;;;;5075303;28;20289;-72
2021/03/06 01:49:00;;;;;;;3.80;2.75;;;1.70;99.40;;;;;;5075800;28;20206;-71
2021/03/06 01:51:28;;;;;;;3.83;3.22;;;1.60;99.50;;;;;;5075971;28;20219;-72
2021/03/06 01:53:54;;;;;;;8.20;3.80;;;1.50;99.90;;;;;;5075764;28;20232;-72
2021/03/06 01:56:21;;;;;;;5.45;3.53;;;1.40;99.90;;;;;;5075574;28;20199;-72
2021/03/06 01:58:47;;;;;;;5.88;2.90;;;1.40;99.90;;;;;;5075886;28;20216;-72
2021/03/06 02:01:13;;;;;;;5.85;3.92;;;1.40;99.90;;;;;;5075752;28;20329;-72
2021/03/06 02:03:40;;;;;;;4.40;3.38;;;1.40;99.90;;;;;;5075233;28;20206;-72
2021/03/06 02:06:06;;;;;;;4.38;3.20;;;1.40;99.90;;;;;;5075364;28;20205;-72
2021/03/06 02:08:33;;;;;;;3.35;2.60;;;1.40;99.90;;;;;;5075445;28;20716;-72
2021/03/06 02:11:00;;;;;;;4.03;2.60;;;1.40;99.90;;;;;;5075375;28;20306;-72
2021/03/06 02:13:45;;;;;;;4.53;3.28;;;1.40;99.90;;;;;;5075893;28;20202;-72
2021/03/06 02:16:21;;;;;;;8.05;3.63;;;1.40;99.90;;;;;;5075131;28;20599;-72
2021/03/06 02:18:55;;;;;;;5.68;3.20;;;1.40;99.90;;;;;;5075087;28;20198;-72
2021/03/06 02:21:48;;;;;;;4.72;3.00;;;1.30;99.90;;;;;;5074772;28;20227;-72
2021/03/06 02:24:44;;;;;;;3.08;2.60;;;1.20;99.90;;;;;;5075131;28;20220;-72
2021/03/06 02:27:17;;;;;;;7.38;2.70;;;1.20;99.90;;;;;;5075029;28;20264;-72
2021/03/06 02:29:49;;;;;;;6.38;3.33;;;1.20;99.90;;;;;;5075192;28;20202;-72
2021/03/06 02:32:20;;;;;;;5.07;2.60;;;1.30;99.90;;;;;;5075505;28;20229;-72
2021/03/06 02:34:51;;;;;;;4.43;2.85;;;1.30;99.90;;;;;;5075251;28;20206;-72
2021/03/06 02:37:22;;;;;;;6.05;3.33;;;1.30;99.90;;;;;;5075727;28;20293;-72
2021/03/06 02:39:54;;;;;;;3.15;2.40;;;1.30;99.90;;;;;;5075769;28;20297;-72
2021/03/06 02:42:24;;;;;;;4.13;3.25;;;1.20;99.90;;;;;;5075314;28;20207;-72
2021/03/06 02:44:53;;;;;;;4.15;2.85;;;1.20;99.90;;;;;;5074712;28;20214;-72
2021/03/06 02:47:20;;;;;;;6.72;3.72;;;1.20;99.90;;;;;;5074518;28;20286;-72
2021/03/06 02:49:51;;;;;;;4.72;3.15;;;1.20;99.90;;;;;;5074530;28;20706;-72
2021/03/06 02:52:17;;;;;;;4.15;2.70;;;1.10;99.90;;;;;;5074840;28;20257;-72
2021/03/06 02:54:44;;;;;;;3.60;2.88;;;1.10;99.90;;;;;;5074777;28;20209;-72
2021/03/06 02:57:16;;;;;;;4.85;2.78;;;1.10;99.90;;;;;;5074166;28;20679;-72
2021/03/06 02:59:57;;;;;;;7.85;3.67;;;1.00;99.90;;;;;;5074164;28;20693;-72
2021/03/06 03:02:32;;;;;;;6.05;3.05;;;1.10;99.90;;;;;;5074573;28;20213;-72
2021/03/06 03:05:08;;;;;;;13.35;3.20;;;1.10;99.90;;;;;;5074586;28;20206;-72
2021/03/06 03:07:43;;;;;;;3.10;2.72;;;1.00;99.90;;;;;;5073920;28;20240;-72
2021/03/06 03:10:13;;;;;;;5.65;3.47;;;1.00;99.90;;;;;;5074140;28;20202;-72
2021/03/06 03:12:44;;;;;;;7.20;3.05;;;0.90;99.90;;;;;;5074342;28;20245;-72
2021/03/06 03:15:18;;;;;;;4.93;3.20;;;0.70;99.90;;;;;;5074375;28;20271;-72
2021/03/06 03:17:46;;;;;;;5.05;2.92;;;0.60;99.90;;;;;;5074330;28;20213;-72
2021/03/06 03:20:21;;;;;;;3.35;3.00;;;0.60;99.90;;;;;;5074246;28;20210;-72
2021/03/06 03:22:52;;;;;;;5.50;2.67;;;0.60;99.90;;;;;;5073196;28;20716;-72
2021/03/06 03:25:20;;;;;;;4.50;3.30;;;0.60;99.90;;;;;;5074154;28;20594;-72
2021/03/06 03:27:49;;;;;;;7.25;4.07;;;0.70;99.90;;;;;;5074029;28;20261;-72
2021/03/06 03:30:20;;;;;;;7.13;3.30;;;0.70;99.90;;;;;;5074098;28;20709;-72
2021/03/06 03:32:49;;;;;;;4.78;3.08;;;0.70;99.90;;;;;;5074235;28;20228;-72
2021/03/06 03:35:17;;;;;;;5.78;3.63;;;0.70;99.90;;;;;;5073852;28;20542;-72
2021/03/06 03:37:44;;;;;;;3.47;2.83;;;0.70;99.90;;;;;;5073569;28;20207;-72
2021/03/06 03:40:13;;;;;;;3.78;2.58;;;0.70;99.90;;;;;;5073953;28;20199;-71
2021/03/06 03:42:40;;;;;;;6.68;3.92;;;0.70;99.90;;;;;;5073965;28;20205;-72
2021/03/06 03:45:08;;;;;;;6.70;3.00;;;0.70;99.90;;;;;;5073547;28;20214;-72
2021/03/06 03:47:38;;;;;;;4.57;2.92;;;0.70;99.90;;;;;;5073314;28;20260;-71
2021/03/06 03:50:07;;;;;;;4.05;2.55;;;0.70;99.90;;;;;;5073485;28;20332;-71
2021/03/06 03:52:36;;;;;;;3.13;2.90;;;0.70;99.90;;;;;;5073383;28;20285;-72
2021/03/06 03:55:02;;;;;;;3.17;2.35;;;0.70;99.90;;;;;;5073941;28;20198;-72
2021/03/06 03:57:29;;;;;;;4.45;2.80;;;0.70;99.90;;;;;;5073245;28;20684;-72
2021/03/06 03:59:55;;;;;;;5.63;3.40;;;0.60;99.90;;;;;;5073847;28;20209;-72
2021/03/06 04:02:22;;;;;;;7.22;3.30;;;0.60;99.90;;;;;;5073638;28;20254;-72
2021/03/06 04:04:50;;;;;;;4.25;3.10;;;0.60;99.90;;;;;;5073511;28;20205;-72
2021/03/06 04:07:16;;;;;;;3.35;2.15;;;0.50;99.90;;;;;;5073423;28;20213;-71
2021/03/06 04:09:42;;;;;;;4.43;2.80;;;0.50;99.90;;;;;;5073811;28;20198;-72
2021/03/06 04:12:09;;;;;;;6.40;3.03;;;0.50;99.90;;;;;;5074081;28;20594;-72
2021/03/06 04:14:35;;;;;;;4.47;2.60;;;0.40;99.90;;;;;;5073390;28;20245;-71
2021/03/06 04:17:01;;;;;;;3.15;2.15;;;0.40;99.90;;;;;;5073059;28;20203;-72
2021/03/06 04:19:28;;;;;;;3.67;3.15;;;0.40;99.90;;;;;;5073730;28;20206;-72
2021/03/06 04:21:55;;;;;;;6.60;2.67;;;0.50;99.90;;;;;;5073963;28;20634;-71
2021/03/06 04:24:21;;;;;;;4.88;2.95;;;0.50;99.90;;;;;;5074005;28;20199;-72
2021/03/06 04:26:49;;;;;;;5.70;2.55;;;0.50;99.90;;;;;;5073290;28;20626;-71
2021/03/06 04:29:16;;;;;;;5.97;2.80;;;0.50;99.80;;;;;;5073050;28;20209;-72
2021/03/06 04:31:43;;;;;;;3.03;2.50;;;0.50;99.50;;;;;;5073447;28;20241;-72
2021/03/06 04:34:10;;;;;;;4.75;2.50;;;0.60;99.90;;;;;;5073468;28;20203;-72
2021/03/06 04:36:37;;;;;;;3.83;2.40;;;0.50;99.90;;;;;;5076762;28;20210;-72
2021/03/06 04:39:05;;;;;;;5.00;3.17;;;0.50;99.90;;;;;;5077314;28;20209;-72
2021/03/06 04:41:31;;;;;;;4.53;2.75;;;0.50;99.90;;;;;;5076818;28;20298;-72
2021/03/06 04:43:58;;;;;;;4.05;3.20;;;0.50;99.90;;;;;;5076995;28;20297;-72
2021/03/06 04:46:24;;;;;;;4.38;2.80;;;0.60;99.90;;;;;;5076717;28;20622;-72
2021/03/06 04:48:50;;;;;;;6.32;3.00;;;0.50;99.90;;;;;;5077140;28;20208;-72
2021/03/06 04:51:17;;;;;;;3.58;2.55;;;0.50;99.90;;;;;;5076507;28;20309;-71
2021/03/06 04:53:43;;;;;;;5.10;3.10;;;0.50;99.80;;;;;;5077413;28;20206;-72
2021/03/06 04:56:10;;;;;;;3.25;2.60;;;0.50;99.70;;;;;;5076984;28;20297;-72
2021/03/06 04:58:37;;;;;;;7.75;2.90;;;0.50;99.80;;;;;;5076731;28;20203;-72
2021/03/06 05:01:03;;;;;;;3.75;1.98;;;0.40;99.80;;;;;;5076768;28;20231;-72
2021/03/06 05:03:29;;;;;;;6.13;2.25;;;0.40;99.80;;;;;;5076650;28;20649;-72
2021/03/06 05:05:55;;;;;;;5.00;2.70;;;0.40;99.60;;;;;;5076714;28;20213;-71
2021/03/06 05:08:22;;;;;;;5.22;3.25;;;0.40;99.40;;;;;;5076925;28;20225;-71
2021/03/06 05:10:48;;;;;;;4.10;2.75;;;0.30;99.50;;;;;;5076282;28;20586;-72
2021/03/06 05:13:15;;;;;;;3.80;2.88;;;0.20;99.80;;;;;;5076461;28;20217;-71
2021/03/06 05:15:41;;;;;;;5.20;3.25;;;0.30;99.60;;;;;;5076536;28;20198;-71
2021/03/06 05:18:08;;;;;;;5.47;2.78;;;0.20;99.50;;;;;;5076406;28;20205;-72
2021/03/06 05:20:34;;;;;;;5.15;2.70;;;0.20;99.50;;;;;;5076457;28;20233;-72
2021/03/06 05:23:01;;;;;;;6.70;3.53;;;0.10;99.80;;;;;;5076952;28;20206;-72
2021/03/06 05:25:27;;;;;;;3.40;3.03;;;0.10;99.80;;;;;;5075976;28;20278;-72
2021/03/06 05:27:54;;;;;;;6.30;2.90;;;0.10;99.90;;;;;;5075935;28;20298;-71
2021/03/06 05:30:24;;;;;;;3.50;2.80;;;0.20;99.90;;;;;;5076168;28;20229;-72
2021/03/06 05:32:50;;;;;;;5.88;2.13;;;0.10;99.60;;;;;;5076608;28;20197;-71
2021/03/06 05:35:17;;;;;;;3.60;2.05;;;0.10;99.50;;;;;;5076383;28;20299;-72
2021/03/06 05:37:43;;;;;;;5.72;3.05;;;0.00;99.60;;;;;;5075674;28;20571;-72
2021/03/06 05:40:10;;;;;;;3.28;2.97;;;0.00;99.90;;;;;;5076353;28;20289;-72
2021/03/06 05:42:38;;;;;;;2.50;2.30;;;0.00;99.90;;;;;;5076075;28;20219;-72
2021/03/06 05:45:07;;;;;;;5.55;3.38;;;0.00;99.90;;;;;;5075444;28;20210;-72
2021/03/06 05:47:34;;;;;;;5.35;2.58;;;0.00;99.90;;;;;;5075686;28;20207;-72
2021/03/06 05:50:01;;;;;;;5.50;2.85;;;0.00;99.90;;;;;;5075631;28;20297;-72
2021/03/06 05:52:28;;;;;;;4.32;2.72;;;0.00;99.90;;;;;;5075363;28;20241;-72
2021/03/06 05:54:56;;;;;;;3.28;2.83;;;-0.10;99.90;;;;;;5075730;28;20252;-72
2021/03/06 05:57:23;;;;;;;4.97;3.00;;;-0.10;99.90;;;;;;5075641;28;20211;-72
2021/03/06 05:59:50;;;;;;;3.80;2.70;;;0.00;99.90;;;;;;5075855;28;20214;-72
2021/03/06 06:02:17;;;;;;;3.13;2.30;;;0.00;99.90;;;;;;5075674;28;20223;-72
2021/03/06 06:04:45;;;;;;;2.47;2.28;;;0.00;99.90;;;;;;5076328;28;20198;-72
2021/03/06 06:07:15;;;;;;;3.85;2.40;;;0.00;99.90;;;;;;5075957;28;20206;-72
2021/03/06 06:09:42;;;;;;;5.63;2.45;;;0.00;99.90;;;;;;5076262;28;20327;-72
2021/03/06 06:12:09;;;;;;;4.45;3.35;;;0.00;99.90;;;;;;5075671;28;20219;-72
2021/03/06 06:14:36;;;;;;;5.28;2.97;;;0.00;99.90;;;;;;5075418;28;20199;-72
2021/03/06 06:17:05;;;;;;;7.10;3.25;;;0.10;99.90;;;;;;5075094;28;20209;-71
2021/03/06 06:19:32;;;;;;;4.85;2.60;;;0.10;99.90;;;;;;5075557;28;20649;-72
2021/03/06 06:22:01;;;;;;;4.68;3.08;;;0.10;99.90;;;;;;5074830;28;20313;-72
2021/03/06 06:24:27;;;;;;;4.25;2.83;;;0.10;99.90;;;;;;5075265;28;20298;-72
2021/03/06 06:26:55;;;;;;;5.43;2.85;;;0.00;99.90;;;;;;5074831;28;20203;-72
2021/03/06 06:29:41;;;;;;;3.15;2.00;;;0.00;99.90;;;;;;5075246;28;20687;-72
2021/03/06 06:32:09;;;;;;;3.25;2.42;;;0.00;99.90;;;;;;5074921;28;20271;-72
2021/03/06 06:34:36;;;;;;;4.15;2.00;;;0.00;99.90;;;;;;5074966;28;20207;-72
2021/03/06 06:37:11;;;;;;;5.63;3.20;;;0.10;99.90;;;;;;5074722;28;20218;-72
2021/03/06 06:39:38;;;;;;;4.50;2.78;;;0.20;99.90;;;;;;5075044;28;20285;-72
2021/03/06 06:42:05;;;;;;;3.88;2.95;;;0.20;99.90;;;;;;5075196;28;20280;-72
2021/03/06 06:44:32;;;;;;;2.80;2.45;;;0.30;99.90;;;;;;5074855;28;20221;-72
2021/03/06 06:47:11;;;;;;;6.50;2.70;;;0.30;99.90;;;;;;5074599;28;20207;-72
2021/03/06 06:49:44;;;;;;;5.57;2.63;;;0.40;99.90;;;;;;5074792;28;20673;-72
2021/03/06 06:52:12;;;;;;;5.65;3.53;;;0.40;99.90;;;;;;5074683;28;20218;-71
2021/03/06 06:54:38;;;;;;;4.43;2.97;;;0.40;99.90;;;;;;5074833;28;20285;-72
2021/03/06 06:57:12;;;;;;;6.45;3.20;;;0.40;99.90;;;;;;5073797;28;20211;-72
2021/03/06 06:59:40;;;;;;;9.65;5.60;;;0.50;99.90;;;;;;5074424;28;20244;-72
2021/03/06 07:02:08;;;;;;;7.60;3.58;;;0.50;99.90;;;;;;5074544;28;20227;-72
2021/03/06 07:04:46;;;;;;;5.05;3.45;;;0.50;99.90;;;;;;5074581;28;20356;-72
2021/03/06 07:07:16;;;;;;;3.05;2.78;;;0.50;99.90;;;;;;5073938;28;20553;-72
2021/03/06 07:10:02;;;;;;;6.57;2.70;;;0.60;99.90;;;;;;5074150;28;20297;-72
2021/03/06 07:12:30;;;;;;;5.45;3.42;;;0.60;99.90;;;;;;5074515;28;20209;-72
2021/03/06 07:14:56;;;;;;;6.32;2.90;;;0.60;99.90;;;;;;5074395;28;20292;-72
2021/03/06 07:17:23;;;;;;;5.97;3.33;;;0.60;99.90;;;;;;5073810;28;20291;-71
2021/03/06 07:19:49;;;;;;;5.85;3.42;;;0.60;99.60;;;;;;5074150;28;20297;-71
2021/03/06 07:22:17;;;;;;;3.33;3.00;;;0.60;99.60;;;;;;5074022;28;20218;-72
2021/03/06 07:24:45;;;;;;;6.53;2.70;;;0.60;99.90;;;;;;5073958;28;20645;-71
2021/03/06 07:27:11;;;;;;;3.53;2.70;;;0.60;99.90;;;;;;5074026;28;20202;-72
2021/03/06 07:29:38;;;;;;;5.00;2.50;;;0.60;99.80;;;;;;5074193;28;20667;-72
2021/03/06 07:32:09;;;;;;;3.85;2.05;;;0.70;99.70;;;;;;5074492;28;20314;-71
2021/03/06 07:34:36;;;;;;;4.93;2.88;;;0.70;99.90;;;;;;5073833;28;20657;-71
2021/03/06 07:37:05;;;;;;;5.35;3.58;;;0.60;99.60;;;;;;5073581;28;20705;-71
2021/03/06 07:39:39;;;;;;;6.45;3.45;;;0.70;99.90;;;;;;5074009;28;20303;-72
2021/03/06 07:42:20;;;;;;;5.57;3.00;;;0.60;99.50;;;;;;5074211;28;20226;-71
2021/03/06 07:44:51;;;;;;;3.85;2.83;;;0.60;99.50;;;;;;5073962;28;20298;-72
2021/03/06 07:47:24;;;;;;;6.93;4.25;;;0.60;99.90;;;;;;5073490;28;20207;-71
2021/03/06 07:49:53;;;;;;;3.03;2.42;;;0.70;99.90;;;;;;5074037;28;20210;-72
2021/03/06 07:52:21;;;;;;;6.38;3.95;;;0.80;99.40;;;;;;5074971;28;20309;-72
2021/03/06 07:54:49;;;;;;;4.78;3.67;;;0.90;98.70;;;;;;5073545;28;20752;-72
2021/03/06 07:57:16;;;;;;;5.70;3.42;;;1.00;98.20;;;;;;5073426;28;20597;-71
2021/03/06 07:59:50;;;;;;;8.50;3.80;;;1.00;98.50;;;;;;5073396;28;20268;-71
2021/03/06 08:02:37;;;;;;;4.55;3.00;;;1.00;97.80;;;;;;5073720;28;20222;-71
2021/03/06 08:05:05;;;;;;;3.53;2.90;;;1.10;98.40;;;;;;5073859;28;20229;-71
2021/03/06 08:07:40;;;;;;;6.85;3.60;;;1.10;99.30;;;;;;5073201;28;20294;-72
2021/03/06 08:10:09;;;;;;;7.25;3.30;;;1.10;97.60;;;;;;5076355;28;20553;-72
2021/03/06 08:12:37;;;;;;;5.70;2.50;;;1.10;98.70;;;;;;5077569;28;20206;-71
2021/03/06 08:15:28;;;;;;;4.30;2.60;;;1.10;98.70;;;;;;5077611;28;20206;-72
2021/03/06 08:17:55;;;;;;;5.35;3.63;;;1.20;98.10;;;;;;5072764;28;20343;-72
2021/03/06 08:20:29;;;;;;;5.43;3.05;;;1.30;97.70;;;;;;5077865;28;20575;-72
2021/03/06 08:23:17;;;;;;;5.30;3.28;;;1.30;97.30;;;;;;5077474;28;20222;-72
2021/03/06 08:25:45;;;;;;;5.97;3.03;;;1.50;98.00;;;;;;5074128;28;20202;-72
2021/03/06 08:28:23;;;;;;;7.35;3.25;;;1.60;97.90;;;;;;5077550;28;20207;-72
2021/03/06 08:30:52;;;;;;;6.65;4.05;;;1.70;97.80;;;;;;5077143;28;20719;-72
2021/03/06 08:33:19;;;;;;;6.97;3.63;;;1.80;97.10;;;;;;5077076;28;20289;-72
2021/03/06 08:35:46;;;;;;;4.40;3.00;;;1.90;97.00;;;;;;5077152;28;20208;-72
2021/03/06 08:38:29;;;;;;;3.10;2.30;;;2.00;96.50;;;;;;5076803;28;20255;-72
2021/03/06 08:40:58;;;;;;;2.83;2.53;;;2.00;95.70;;;;;;5076956;28;20304;-72
2021/03/06 08:43:25;;;;;;;4.35;3.20;;;2.10;95.90;;;;;;5076992;28;20649;-72
2021/03/06 08:45:51;;;;;;;4.72;3.15;;;2.20;96.50;;;;;;5076832;28;20304;-72
2021/03/06 08:48:23;;;;;;;5.68;4.00;;;2.20;95.80;;;;;;5077023;28;20256;-72
2021/03/06 08:50:51;;;;;;;5.53;3.63;;;2.30;95.30;;;;;;5076965;28;20223;-72
2021/03/06 08:53:18;;;;;;;6.75;3.28;;;2.30;95.20;;;;;;5077408;28;20203;-72
2021/03/06 08:55:45;;;;;;;6.22;3.47;;;2.30;95.50;;;;;;5077199;28;20305;-73
2021/03/06 08:58:14;;;;;;;6.03;4.00;;;2.50;95.60;;;;;;5076596;28;20207;-73
2021/03/06 09:00:43;;;;;;;6.03;3.15;;;2.60;94.90;;;;;;5076607;28;20230;-73
2021/03/06 09:03:24;;;;;;;6.47;3.80;;;2.60;94.90;;;;;;5077083;28;20218;-73
2021/03/06 09:05:53;;;;;;;5.65;3.67;;;2.80;94.90;;;;;;5077195;28;20202;-73
2021/03/06 09:08:20;;;;;;;10.00;3.47;;;2.70;94.30;;;;;;5076946;28;20205;-73
2021/03/06 09:10:47;;;;;;;6.45;3.72;;;2.70;94.50;;;;;;5077287;28;20233;-73
2021/03/06 09:13:19;;;;;;;6.47;3.88;;;2.80;94.20;;;;;;5076195;28;20686;-73
2021/03/06 09:15:48;;;;;;;6.15;3.92;;;2.90;94.50;;;;;;5076916;28;20548;-73
2021/03/06 09:18:17;;;;;;;6.70;4.05;;;3.00;94.10;;;;;;5076600;28;20234;-73
2021/03/06 09:20:47;;;;;;;6.55;3.63;;;3.10;93.70;;;;;;5075893;28;20306;-73
2021/03/06 09:23:33;;;;;;;5.47;3.50;;;3.30;93.60;;;;;;5076693;28;20305;-73
2021/03/06 09:26:04;;;;;;;11.63;3.97;;;3.30;93.60;;;;;;5077004;28;20249;-73
2021/03/06 09:28:35;;;;;;;6.65;4.05;;;3.40;93.10;;;;;;5076762;28;20203;-73
2021/03/06 09:31:03;;;;;;;5.38;2.85;;;3.50;93.20;;;;;;5076379;28;20258;-73
2021/03/06 09:33:31;;;;;;;5.15;3.08;;;3.70;92.00;;;;;;5076113;28;20199;-73
2021/03/06 09:36:00;;;;;;;4.63;3.08;;;3.80;90.10;;;;;;5076300;28;20289;-73
2021/03/06 09:38:27;;;;;;;5.22;3.72;;;3.90;90.80;;;;;;5076438;28;20706;-73
2021/03/06 09:40:55;;;;;;;3.95;2.83;;;4.00;90.90;;;;;;5076300;28;20222;-73
2021/03/06 09:43:26;;;;;;;3.92;3.05;;;4.10;88.60;;;;;;5076808;28;20205;-73
2021/03/06 09:45:54;;;;;;;5.43;3.83;;;4.20;89.50;;;;;;5075613;28;20294;-73
2021/03/06 09:48:21;;;;;;;6.65;3.33;;;4.20;90.00;;;;;;5075721;28;20677;-73
2021/03/06 09:50:48;;;;;;;9.13;3.67;;;4.30;89.40;;;;;;5075867;28;20257;-73
2021/03/06 09:53:21;;;;;;;5.15;3.20;;;4.40;89.90;;;;;;5076270;28;20357;-73
2021/03/06 09:56:01;;;;;;;4.55;3.10;;;4.50;87.20;;;;;;5076060;28;20209;-73
2021/03/06 09:58:27;;;;;;;3.58;2.80;;;4.70;84.10;;;;;;5075581;28;20202;-73
2021/03/06 10:00:54;;;;;;;3.90;2.80;;;4.80;81.80;;;;;;5075706;28;20233;-73
2021/03/06 10:03:34;;;;;;;6.57;3.60;;;4.90;81.40;;;;;;5075717;28;20210;-73
2021/03/06 10:06:02;;;;;;;6.03;4.00;;;5.00;80.20;;;;;;5075636;28;20285;-73
2021/03/06 10:08:31;;;;;;;6.10;3.47;;;5.10;81.70;;;;;;5075789;28;20213;-73
2021/03/06 10:10:59;;;;;;;5.10;3.50;;;5.20;82.90;;;;;;5075134;28;20222;-73
2021/03/06 10:13:25;;;;;;;5.55;3.80;;;5.30;82.10;;;;;;5075383;28;20203;-73
2021/03/06 10:15:52;;;;;;;6.03;4.22;;;5.30;82.40;;;;;;5075325;28;20645;-73
2021/03/06 10:18:20;;;;;;;6.50;4.45;;;5.50;82.60;;;;;;5075389;28;20202;-73
2021/03/06 10:20:48;;;;;;;6.25;3.55;;;5.70;80.20;;;;;;5075120;28;20225;-72
2021/03/06 10:23:15;;;;;;;5.57;4.40;;;6.30;79.10;;;;;;5075446;28;20223;-73
2021/03/06 10:25:41;;;;;;;5.40;3.60;;;7.00;74.90;;;;;;5074924;28;20206;-73
2021/03/06 10:28:12;;;;;;;4.93;3.58;;;7.50;70.90;;;;;;5074824;28;20294;-73
2021/03/06 10:30:41;;;;;;;5.15;3.30;;;7.90;68.50;;;;;;5075126;28;20565;-73
2021/03/06 10:33:22;;;;;;;6.88;4.05;;;8.70;66.70;;;;;;5075411;28;20274;-73
2021/03/06 10:35:49;;;;;;;5.28;3.70;;;8.90;61.90;;;;;;5075196;28;20209;-73
2021/03/06 10:38:25;;;;;;;5.32;4.13;;;9.10;62.50;;;;;;5074681;28;20576;-73
2021/03/06 10:40:54;;;;;;;6.22;3.30;;;9.40;59.90;;;;;;5074459;28;20329;-73
2021/03/06 10:43:31;;;;;;;5.47;3.53;;;9.30;58.50;;;;;;5075232;28;20210;-73
2021/03/06 10:46:15;;;;;;;5.75;4.22;;;9.30;56.90;;;;;;5074292;28;20216;-73
2021/03/06 10:48:45;;;;;;;6.18;3.85;;;9.00;57.60;;;;;;5074697;28;20293;-73
2021/03/06 10:51:12;;;;;;;6.20;4.18;;;8.70;57.90;;;;;;5074844;28;20218;-73
2021/03/06 10:53:38;;;;;;;5.25;3.47;;;8.30;58.10;;;;;;5074742;28;20289;-73
2021/03/06 10:56:18;;;;;;;4.72;3.90;;;8.20;58.50;;;;;;5074190;28;20293;-73
2021/03/06 10:58:46;;;;;;;7.57;3.83;;;8.00;59.20;;;;;;5074321;28;20390;-73
2021/03/06 11:01:15;;;;;;;4.22;3.72;;;7.90;59.40;;;;;;5074228;28;20379;-73
2021/03/06 11:03:44;;;;;;;4.00;3.60;;;7.80;59.50;;;;;;5074513;28;20203;-73
2021/03/06 11:06:11;;;;;;;5.25;3.50;;;7.60;59.40;;;;;;5073941;28;20203;-73
2021/03/06 11:08:37;;;;;;;5.95;3.60;;;7.40;59.10;;;;;;5074552;28;20234;-73
2021/03/06 11:11:05;;;;;;;4.43;2.90;;;7.40;59.90;;;;;;5074788;28;20314;-73
2021/03/06 11:13:43;;;;;;;4.45;3.17;;;7.80;59.00;;;;;;5074115;28;20263;-73
2021/03/06 11:16:10;;;;;;;7.35;3.63;;;8.00;58.50;;;;;;5073960;28;20205;-74
2021/03/06 11:18:38;;;;;;;4.22;3.15;;;8.90;58.10;;;;;;5074350;28;20202;-73
2021/03/06 11:21:10;;;;;;;5.95;3.72;;;9.90;56.00;;;;;;5074173;28;20719;-74
2021/03/06 11:23:37;;;;;;;5.22;3.90;;;10.40;52.80;;;;;;5074753;28;20209;-74
2021/03/06 11:26:04;;;;;;;4.43;3.35;;;10.80;49.50;;;;;;5073860;28;20316;-73
2021/03/06 11:28:31;;;;;;;5.20;3.67;;;11.10;49.60;;;;;;5073697;28;20728;-74
2021/03/06 11:30:57;;;;;;;4.55;3.45;;;12.10;49.00;;;;;;5073775;28;20249;-74
2021/03/06 11:33:24;;;;;;;8.05;4.30;;;13.20;47.00;;;;;;5074064;28;20199;-74
2021/03/06 11:35:51;;;;;;;4.47;3.70;;;13.30;43.80;;;;;;5074242;28;20300;-74
2021/03/06 11:38:20;;;;;;;4.90;3.50;;;13.40;43.10;;;;;;5074541;28;20716;-74
2021/03/06 11:40:48;;;;;;;4.00;3.60;;;13.20;43.40;;;;;;5074422;28;20313;-74
2021/03/06 11:43:16;;;;;;;5.15;4.00;;;12.50;42.70;;;;;;5073422;28;20237;-74
2021/03/06 11:45:43;;;;;;;4.90;3.78;;;11.90;43.10;;;;;;5073345;28;20305;-73
2021/03/06 11:48:10;;;;;;;5.93;4.10;;;10.90;44.30;;;;;;5073854;28;20237;-73
2021/03/06 11:50:39;;;;;;;5.22;3.88;;;10.40;46.00;;;;;;5073824;28;20223;-73
2021/03/06 11:53:06;;;;;;;5.25;3.65;;;10.00;46.50;;;;;;5075358;28;20343;-74
2021/03/06 11:55:33;;;;;;;4.22;3.55;;;9.60;48.60;;;;;;5083752;28;20297;-74
2021/03/06 11:58:00;;;;;;;5.00;3.35;;;8.80;48.00;;;;;;5092605;28;20567;-74
2021/03/06 12:00:28;;;;;;;3.60;3.05;;;8.70;49.60;;;;;;5092358;28;20232;-74
2021/03/06 12:02:55;;;;;;;4.03;3.10;;;8.60;49.70;;;;;;5092448;28;20400;-74
2021/03/06 12:05:21;;;;;;;5.82;3.08;;;8.60;50.60;;;;;;5092006;28;20305;-74
2021/03/06 12:07:51;;;;;;;4.28;3.40;;;8.80;50.30;;;;;;5092477;28;20567;-74
2021/03/06 12:10:19;;;;;;;3.38;2.88;;;9.50;50.20;;;;;;5092386;28;20719;-76
2021/03/06 12:12:49;;;;;;;4.18;2.83;;;9.70;48.00;;;;;;5092988;28;20234;-74
2021/03/06 12:15:16;;;;;;;3.55;3.20;;;10.40;46.30;;;;;;5092271;28;20198;-76
2021/03/06 12:17:44;;;;;;;4.72;3.55;;;11.60;44.80;;;;;;5091869;28;20219;-70
2021/03/06 12:20:12;;;;;;;4.53;3.55;;;12.80;43.40;;;;;;5092075;28;20327;-71
2021/03/06 12:22:39;;;;;;;4.63;3.47;;;13.60;40.60;;;;;;5092277;28;20309;-72
2021/03/06 12:25:07;;;;;;;3.40;3.08;;;14.30;39.10;;;;;;5092436;28;20640;-71
2021/03/06 12:27:34;;;;;;;3.80;3.35;;;14.80;37.80;;;;;;5092195;28;20298;-72
2021/03/06 12:30:01;;;;;;;4.07;3.35;;;14.90;37.40;;;;;;5091986;28;20261;-72
2021/03/06 12:32:32;;;;;;;3.38;2.85;;;14.60;36.80;;;;;;5092196;28;20701;-71
2021/03/06 12:34:59;;;;;;;4.28;2.78;;;14.90;36.30;;;;;;5092388;28;20216;-71
2021/03/06 12:37:25;;;;;;;3.83;3.33;;;14.80;35.90;;;;;;5092090;28;20215;-71
2021/03/06 12:39:51;;;;;;;3.60;3.30;;;14.60;36.00;;;;;;5092541;28;20211;-70
2021/03/06 12:42:18;;;;;;;4.05;2.90;;;14.30;36.00;;;;;;5092362;28;20319;-72
2021/03/06 12:44:47;;;;;;;3.97;3.10;;;14.00;36.40;;;;;;5091946;28;20233;-71
2021/03/06 12:47:14;;;;;;;3.40;3.10;;;13.30;36.60;;;;;;5091772;28;20229;-72
2021/03/06 12:49:41;;;;;;;3.33;3.03;;;12.60;36.70;;;;;;5092215;28;20198;-71
2021/03/06 12:52:07;;;;;;;3.67;3.17;;;11.90;37.00;;;;;;5091948;28;20696;-71
2021/03/06 12:54:34;;;;;;;3.38;3.08;;;11.50;39.60;;;;;;5092263;28;20206;-72
2021/03/06 12:57:03;;;;;;;4.72;3.28;;;11.10;39.60;;;;;;5094604;28;20563;-72
2021/03/06 12:59:30;;;;;;;3.83;3.03;;;10.80;39.80;;;;;;5095917;28;20289;-72
2021/03/06 13:01:56;;;;;;;3.20;2.90;;;10.50;40.00;;;;;;5095886;28;20232;-73
2021/03/06 13:04:23;;;;;;;4.60;3.00;;;10.40;40.10;;;;;;5095853;28;20308;-71